Brilliance Of The Seas — C6SJ5 — position and weather

sailwx.info

Track history (hours):
 
Tides and Currents Weather Stations Pressure Air Temp Water Temp Dewpoint Dewpoint Depression Visibility Wind Speed Wind Dir Waves Ship Positions

Brilliance Of The Seas

Operator: Royal Caribbean Cruises Ltd

Last reported at 2019-Apr-24 09:00 UTC. Time now 2019-Apr-24 22:21 UTC.
Position N 22°24' W 085°48'.

Type: Ship. MMSI: 311361000.

Wind from 070 at 15 knots

Barometer 1015.5 mb
Air temperature 26.0 ° C
Visibility: greater than 10.8 NM
Dewpoint 20.9 ° C
Water temperature 27.0 ° C

Date/timePositionNaut miles runAvg speedWind from/ knotsBaromVisibWave heightAir tempDewpointWater temp
2019-Apr-24 09:00N 22°24' W 085°48'12516.0 070 / 151015.510.8 26.020.927.0
2019-Apr-24 01:08N 20°36' W 086°57'217.0
2019-Apr-24 01:01N 20°34' W 086°58'510.6
2019-Apr-24 00:30N 20°29' W 086°59'0 0.0
2019-Apr-24 00:00N 20°29' W 086°59'0 0.0
2019-Apr-23 23:30N 20°29' W 086°59'0 0.0
2019-Apr-23 22:57N 20°29' W 086°59'0 0.0
2019-Apr-23 22:27N 20°29' W 086°59'0 0.0
2019-Apr-23 22:00N 20°29' W 086°59'0 0.0
2019-Apr-23 21:30N 20°29' W 086°59'0 0.0
2019-Apr-23 21:00N 20°29' W 086°59'0 0.0
2019-Apr-23 20:27N 20°29' W 086°59'0 0.0
2019-Apr-23 19:57N 20°29' W 086°59'0 0.0
2019-Apr-23 19:30N 20°29' W 086°59'0 0.0
2019-Apr-23 19:00N 20°29' W 086°59'0 0.0
2019-Apr-23 18:30N 20°29' W 086°59'0 0.0
2019-Apr-23 17:57N 20°29' W 086°59'0 0.0
2019-Apr-23 17:30N 20°29' W 086°59'0 0.0
2019-Apr-23 17:00N 20°29' W 086°59'0 0.0
2019-Apr-23 16:30N 20°29' W 086°59'0 0.0
2019-Apr-23 16:00N 20°29' W 086°59'0 0.0
2019-Apr-23 15:30N 20°29' W 086°59'0 0.0
2019-Apr-23 15:00N 20°29' W 086°59'0 0.5
2019-Apr-23 14:30N 20°29' W 086°59'4 8.3
2019-Apr-23 14:01N 20°33' W 086°58'5518.1
2019-Apr-23 11:00N 20°30' W 086°00'5417.9 090 / 151016.510.8 26.023.427.0
2019-Apr-23 08:00N 20°12' W 085°06'160 6.7 080 / 131016.510.8 26.023.027.0
2019-Apr-22 08:00N 19°48' W 082°18'27214.3 030 / 211017.510.8 26.0 27.0
2019-Apr-21 13:00N 23°54' W 084°24'16017.7 070 / 81021.5 23.023.026.0
2019-Apr-21 04:00N 26°24' W 083°24'9215.3 280 / 251018.510.8 22.018.9
2019-Apr-20 22:00N 27°42' W 082°30'437.7 270 / 231015.510.8 21.017.8
2019-Apr-20 21:54N 27°46' W 082°31'511.9
2019-Apr-20 21:30N 27°48' W 082°27'611.7
2019-Apr-20 21:00N 27°54' W 082°26'2 4.0
2019-Apr-20 20:31N 27°56' W 082°27'0 0.8
2019-Apr-20 19:58N 27°57' W 082°27'0 0.0
2019-Apr-20 19:28N 27°57' W 082°27'4 7.5
2019-Apr-20 19:00N 27°54' W 082°24'4197.9 330 / 71017.5 21.0 27.0
2019-Apr-20 18:58N 27°57' W 082°27'0 0.0
2019-Apr-20 18:28N 27°57' W 082°27'0 0.0
2019-Apr-20 17:58N 27°57' W 082°27'0 0.0
2019-Apr-20 17:28N 27°57' W 082°27'0 0.0
2019-Apr-20 16:58N 27°57' W 082°27'0 0.0
2019-Apr-20 16:28N 27°57' W 082°27'0 0.0
2019-Apr-20 15:58N 27°57' W 082°27'0 0.0
2019-Apr-20 15:28N 27°57' W 082°27'0 0.0
2019-Apr-20 14:58N 27°57' W 082°27'0 0.0
2019-Apr-20 14:28N 27°57' W 082°27'0 0.0
2019-Apr-20 13:58N 27°57' W 082°27'0 0.0
2019-Apr-20 13:28N 27°57' W 082°27'4 7.5
2019-Apr-20 13:00N 27°54' W 082°24'4201.0 290 / 211017.2 23.023.026.0
2019-Apr-20 12:58N 27°57' W 082°27'0 0.0
2019-Apr-20 12:28N 27°57' W 082°27'4 7.5
2019-Apr-20 12:00N 27°54' W 082°24'4195.0 200 / 31016.0 22.022.026.0
2019-Apr-20 11:58N 27°57' W 082°27'0 0.0
2019-Apr-20 11:25N 27°57' W 082°27'0 0.0
2019-Apr-20 10:58N 27°57' W 082°27'0 0.1
2019-Apr-20 10:30N 27°57' W 082°27'2 3.7
2019-Apr-20 10:00N 27°55' W 082°27'2176.0
2019-Apr-20 10:00N 27°54' W 082°24'4 7.5 250 / 161014.510.8 20.015.321.0
2019-Apr-20 09:30N 27°51' W 082°27'611.1
2019-Apr-20 09:00N 27°47' W 082°31'19 9.3
2019-Apr-20 07:00N 27°36' W 082°48'35214.7 260 / 181013.510.8 21.016.022.0
2019-Apr-19 07:00N 22°24' W 085°48'4515.1 170 / 181013.510.8 27.023.927.0
2019-Apr-19 04:00N 21°42' W 086°06'8215.7 150 / 171012.510.8 27.0
2019-Apr-18 22:45N 20°35' W 086°57'415.7
2019-Apr-18 22:30N 20°32' W 086°59'3 5.2
2019-Apr-18 21:58N 20°29' W 086°59'0 0.0
2019-Apr-18 21:25N 20°29' W 086°59'0 0.0
2019-Apr-18 20:58N 20°29' W 086°59'0 0.0
2019-Apr-18 20:28N 20°29' W 086°59'713.6
2019-Apr-18 20:00N 20°24' W 086°54'792.3 170 / 81012.5 29.0 27.0
2019-Apr-18 19:55N 20°29' W 086°59'0 0.0
2019-Apr-18 19:25N 20°29' W 086°59'0 0.0
2019-Apr-18 18:58N 20°29' W 086°59'0 0.0
2019-Apr-18 18:28N 20°29' W 086°59'0 0.0
2019-Apr-18 17:58N 20°29' W 086°59'0 0.0
2019-Apr-18 17:28N 20°29' W 086°59'0 0.0
2019-Apr-18 16:58N 20°29' W 086°59'0 0.0
2019-Apr-18 16:28N 20°29' W 086°59'0 0.0
2019-Apr-18 15:58N 20°29' W 086°59'0 0.0
2019-Apr-18 15:28N 20°29' W 086°59'0 0.0
2019-Apr-18 14:58N 20°29' W 086°59'0 0.0
2019-Apr-18 14:28N 20°29' W 086°59'0 0.0
2019-Apr-18 13:58N 20°29' W 086°59'0 0.0
2019-Apr-18 13:25N 20°29' W 086°59'0 0.0
2019-Apr-18 12:58N 20°29' W 086°59'0 0.0
2019-Apr-18 12:28N 20°29' W 086°59'0 0.0
2019-Apr-18 11:58N 20°29' W 086°59'0 0.0
2019-Apr-18 11:28N 20°29' W 086°59'0 0.0
2019-Apr-18 10:58N 20°29' W 086°59'0 0.4
2019-Apr-18 10:31N 20°29' W 086°59'3 6.8
2019-Apr-18 10:01N 20°33' W 086°59'711.5
2019-Apr-18 09:23N 20°39' W 086°54'6411.9
2019-Apr-18 04:00N 21°24' W 086°06'6911.6 130 / 201015.510.8 27.0
2019-Apr-17 22:00N 22°12' W 085°12'2914.3 060 / 121015.5 29.029.027.0
2019-Apr-17 20:00N 22°30' W 084°48'99 9.9 050 / 141016.5 27.0 26.5
2019-Apr-17 10:00N 23°24' W 083°18'7011.7 070 / 181018.510.8 25.019.926.0
2019-Apr-17 04:00N 24°00' W 082°12'28 9.4 060 / 111020.510.8 27.0
2019-Apr-17 01:00N 24°18' W 081°48'155 7.0 060 / 181020.510.8 27.0
2019-Apr-16 03:00N 26°36' W 083°06'6813.6 030 / 161021.510.8 20.0
2019-Apr-15 22:00N 27°36' W 082°30'1037.1 330 / 181018.510.8 22.018.9
2019-Apr-15 21:44N 27°46' W 082°31'311.2
2019-Apr-15 21:30N 27°48' W 082°30'611.9
2019-Apr-15 21:00N 27°53' W 082°26'3 6.0
2019-Apr-15 20:30N 27°56' W 082°27'1 1.8
2019-Apr-15 20:00N 27°57' W 082°27'0 0.0
2019-Apr-15 19:30N 27°57' W 082°27'0 0.0
2019-Apr-15 19:00N 27°57' W 082°27'0 0.0
2019-Apr-15 18:30N 27°57' W 082°27'0 0.0
2019-Apr-15 18:00N 27°57' W 082°27'0 0.0
2019-Apr-15 17:30N 27°57' W 082°27'0 0.0
2019-Apr-15 17:00N 27°57' W 082°27'0 0.0
2019-Apr-15 16:30N 27°57' W 082°27'0 0.0
2019-Apr-15 16:00N 27°57' W 082°27'0 0.0
2019-Apr-15 15:30N 27°57' W 082°27'0 0.0
2019-Apr-15 15:00N 27°57' W 082°27'0 0.0
2019-Apr-15 14:30N 27°57' W 082°27'0 0.0
2019-Apr-15 14:00N 27°57' W 082°27'0 0.0
2019-Apr-15 13:30N 27°57' W 082°27'0 0.0
2019-Apr-15 13:00N 27°57' W 082°27'0 0.0
2019-Apr-15 12:30N 27°57' W 082°27'0 0.0
2019-Apr-15 12:00N 27°57' W 082°27'0 0.0
2019-Apr-15 11:30N 27°57' W 082°27'0 0.0
2019-Apr-15 11:00N 27°57' W 082°27'0 0.0
2019-Apr-15 10:30N 27°57' W 082°27'1 1.4
2019-Apr-15 10:00N 27°56' W 082°27'2 4.6
2019-Apr-15 09:31N 27°54' W 082°26'5 9.4
2019-Apr-15 09:00N 27°49' W 082°27'510.6
2019-Apr-15 08:30N 27°46' W 082°31'4910.9
2019-Apr-15 04:00N 27°12' W 083°12'13915.5 260 / 251015.5 5.4 23.019.9
2019-Apr-14 19:00N 25°06' W 084°18'8714.5 170 / 131014.5 26.0 26.0
2019-Apr-14 13:00N 23°48' W 085°00'   170 / 191013.5 27.226.927.1
Track history (hours):
 
Tides and Currents Weather Stations Pressure Air Temp Water Temp Dewpoint Dewpoint Depression Visibility Wind Speed Wind Dir Waves Ship Positions

Brilliance Of The Seas

Operator: Royal Caribbean Cruises Ltd

Last reported at 2019-Apr-24 09:00 UTC. Time now 2019-Apr-24 22:21 UTC.
Position N 22°24' W 085°48'.

Type: Ship. MMSI: 311361000.

Wind from 070 at 15 knots

Barometer 1015.5 mb
Air temperature 26.0 ° C
Visibility: greater than 10.8 NM
Dewpoint 20.9 ° C
Water temperature 27.0 ° C

Date/timePositionNaut miles runAvg speedWind from/ knotsBaromVisibWave heightAir tempDewpointWater temp
2019-Apr-24 09:00N 22°24' W 085°48'12516.0 070 / 151015.510.8 26.020.927.0
2019-Apr-24 01:08N 20°36' W 086°57'217.0
2019-Apr-24 01:01N 20°34' W 086°58'510.6
2019-Apr-24 00:30N 20°29' W 086°59'0 0.0
2019-Apr-24 00:00N 20°29' W 086°59'0 0.0
2019-Apr-23 23:30N 20°29' W 086°59'0 0.0
2019-Apr-23 22:57N 20°29' W 086°59'0 0.0
2019-Apr-23 22:27N 20°29' W 086°59'0 0.0
2019-Apr-23 22:00N 20°29' W 086°59'0 0.0
2019-Apr-23 21:30N 20°29' W 086°59'0 0.0
2019-Apr-23 21:00N 20°29' W 086°59'0 0.0
2019-Apr-23 20:27N 20°29' W 086°59'0 0.0
2019-Apr-23 19:57N 20°29' W 086°59'0 0.0
2019-Apr-23 19:30N 20°29' W 086°59'0 0.0
2019-Apr-23 19:00N 20°29' W 086°59'0 0.0
2019-Apr-23 18:30N 20°29' W 086°59'0 0.0
2019-Apr-23 17:57N 20°29' W 086°59'0 0.0
2019-Apr-23 17:30N 20°29' W 086°59'0 0.0
2019-Apr-23 17:00N 20°29' W 086°59'0 0.0
2019-Apr-23 16:30N 20°29' W 086°59'0 0.0
2019-Apr-23 16:00N 20°29' W 086°59'0 0.0
2019-Apr-23 15:30N 20°29' W 086°59'0 0.0
2019-Apr-23 15:00N 20°29' W 086°59'0 0.5
2019-Apr-23 14:30N 20°29' W 086°59'4 8.3
2019-Apr-23 14:01N 20°33' W 086°58'5518.1
2019-Apr-23 11:00N 20°30' W 086°00'5417.9 090 / 151016.510.8 26.023.427.0
2019-Apr-23 08:00N 20°12' W 085°06'160 6.7 080 / 131016.510.8 26.023.027.0
2019-Apr-22 08:00N 19°48' W 082°18'27214.3 030 / 211017.510.8 26.0 27.0
2019-Apr-21 13:00N 23°54' W 084°24'16017.7 070 / 81021.5 23.023.026.0
2019-Apr-21 04:00N 26°24' W 083°24'9215.3 280 / 251018.510.8 22.018.9
2019-Apr-20 22:00N 27°42' W 082°30'437.7 270 / 231015.510.8 21.017.8
2019-Apr-20 21:54N 27°46' W 082°31'511.9
2019-Apr-20 21:30N 27°48' W 082°27'611.7
2019-Apr-20 21:00N 27°54' W 082°26'2 4.0
2019-Apr-20 20:31N 27°56' W 082°27'0 0.8
2019-Apr-20 19:58N 27°57' W 082°27'0 0.0
2019-Apr-20 19:28N 27°57' W 082°27'4 7.5
2019-Apr-20 19:00N 27°54' W 082°24'4197.9 330 / 71017.5 21.0 27.0
2019-Apr-20 18:58N 27°57' W 082°27'0 0.0
2019-Apr-20 18:28N 27°57' W 082°27'0 0.0
2019-Apr-20 17:58N 27°57' W 082°27'0 0.0
2019-Apr-20 17:28N 27°57' W 082°27'0 0.0
2019-Apr-20 16:58N 27°57' W 082°27'0 0.0
2019-Apr-20 16:28N 27°57' W 082°27'0 0.0
2019-Apr-20 15:58N 27°57' W 082°27'0 0.0
2019-Apr-20 15:28N 27°57' W 082°27'0 0.0
2019-Apr-20 14:58N 27°57' W 082°27'0 0.0
2019-Apr-20 14:28N 27°57' W 082°27'0 0.0
2019-Apr-20 13:58N 27°57' W 082°27'0 0.0
2019-Apr-20 13:28N 27°57' W 082°27'4 7.5
2019-Apr-20 13:00N 27°54' W 082°24'4201.0 290 / 211017.2 23.023.026.0
2019-Apr-20 12:58N 27°57' W 082°27'0 0.0
2019-Apr-20 12:28N 27°57' W 082°27'4 7.5
2019-Apr-20 12:00N 27°54' W 082°24'4195.0 200 / 31016.0 22.022.026.0
2019-Apr-20 11:58N 27°57' W 082°27'0 0.0
2019-Apr-20 11:25N 27°57' W 082°27'0 0.0
2019-Apr-20 10:58N 27°57' W 082°27'0 0.1
2019-Apr-20 10:30N 27°57' W 082°27'2 3.7
2019-Apr-20 10:00N 27°55' W 082°27'2176.0
2019-Apr-20 10:00N 27°54' W 082°24'4 7.5 250 / 161014.510.8 20.015.321.0
2019-Apr-20 09:30N 27°51' W 082°27'611.1
2019-Apr-20 09:00N 27°47' W 082°31'19 9.3
2019-Apr-20 07:00N 27°36' W 082°48'35214.7 260 / 181013.510.8 21.016.022.0
2019-Apr-19 07:00N 22°24' W 085°48'4515.1 170 / 181013.510.8 27.023.927.0
2019-Apr-19 04:00N 21°42' W 086°06'8215.7 150 / 171012.510.8 27.0
2019-Apr-18 22:45N 20°35' W 086°57'415.7
2019-Apr-18 22:30N 20°32' W 086°59'3 5.2
2019-Apr-18 21:58N 20°29' W 086°59'0 0.0
2019-Apr-18 21:25N 20°29' W 086°59'0 0.0
2019-Apr-18 20:58N 20°29' W 086°59'0 0.0
2019-Apr-18 20:28N 20°29' W 086°59'713.6
2019-Apr-18 20:00N 20°24' W 086°54'792.3 170 / 81012.5 29.0 27.0
2019-Apr-18 19:55N 20°29' W 086°59'0 0.0
2019-Apr-18 19:25N 20°29' W 086°59'0 0.0
2019-Apr-18 18:58N 20°29' W 086°59'0 0.0
2019-Apr-18 18:28N 20°29' W 086°59'0 0.0
2019-Apr-18 17:58N 20°29' W 086°59'0 0.0
2019-Apr-18 17:28N 20°29' W 086°59'0 0.0
2019-Apr-18 16:58N 20°29' W 086°59'0 0.0
2019-Apr-18 16:28N 20°29' W 086°59'0 0.0
2019-Apr-18 15:58N 20°29' W 086°59'0 0.0
2019-Apr-18 15:28N 20°29' W 086°59'0 0.0
2019-Apr-18 14:58N 20°29' W 086°59'0 0.0
2019-Apr-18 14:28N 20°29' W 086°59'0 0.0
2019-Apr-18 13:58N 20°29' W 086°59'0 0.0
2019-Apr-18 13:25N 20°29' W 086°59'0 0.0
2019-Apr-18 12:58N 20°29' W 086°59'0 0.0
2019-Apr-18 12:28N 20°29' W 086°59'0 0.0
2019-Apr-18 11:58N 20°29' W 086°59'0 0.0
2019-Apr-18 11:28N 20°29' W 086°59'0 0.0
2019-Apr-18 10:58N 20°29' W 086°59'0 0.4
2019-Apr-18 10:31N 20°29' W 086°59'3 6.8
2019-Apr-18 10:01N 20°33' W 086°59'711.5
2019-Apr-18 09:23N 20°39' W 086°54'6411.9
2019-Apr-18 04:00N 21°24' W 086°06'6911.6 130 / 201015.510.8 27.0
2019-Apr-17 22:00N 22°12' W 085°12'2914.3 060 / 121015.5 29.029.027.0
2019-Apr-17 20:00N 22°30' W 084°48'99 9.9 050 / 141016.5 27.0 26.5
2019-Apr-17 10:00N 23°24' W 083°18'7011.7 070 / 181018.510.8 25.019.926.0
2019-Apr-17 04:00N 24°00' W 082°12'28 9.4 060 / 111020.510.8 27.0
2019-Apr-17 01:00N 24°18' W 081°48'155 7.0 060 / 181020.510.8 27.0
2019-Apr-16 03:00N 26°36' W 083°06'6813.6 030 / 161021.510.8 20.0
2019-Apr-15 22:00N 27°36' W 082°30'1037.1 330 / 181018.510.8 22.018.9
2019-Apr-15 21:44N 27°46' W 082°31'311.2
2019-Apr-15 21:30N 27°48' W 082°30'611.9
2019-Apr-15 21:00N 27°53' W 082°26'3 6.0
2019-Apr-15 20:30N 27°56' W 082°27'1 1.8
2019-Apr-15 20:00N 27°57' W 082°27'0 0.0
2019-Apr-15 19:30N 27°57' W 082°27'0 0.0
2019-Apr-15 19:00N 27°57' W 082°27'0 0.0
2019-Apr-15 18:30N 27°57' W 082°27'0 0.0
2019-Apr-15 18:00N 27°57' W 082°27'0 0.0
2019-Apr-15 17:30N 27°57' W 082°27'0 0.0
2019-Apr-15 17:00N 27°57' W 082°27'0 0.0
2019-Apr-15 16:30N 27°57' W 082°27'0 0.0
2019-Apr-15 16:00N 27°57' W 082°27'0 0.0
2019-Apr-15 15:30N 27°57' W 082°27'0 0.0
2019-Apr-15 15:00N 27°57' W 082°27'0 0.0
2019-Apr-15 14:30N 27°57' W 082°27'0 0.0
2019-Apr-15 14:00N 27°57' W 082°27'0 0.0
2019-Apr-15 13:30N 27°57' W 082°27'0 0.0
2019-Apr-15 13:00N 27°57' W 082°27'0 0.0
2019-Apr-15 12:30N 27°57' W 082°27'0 0.0
2019-Apr-15 12:00N 27°57' W 082°27'0 0.0
2019-Apr-15 11:30N 27°57' W 082°27'0 0.0
2019-Apr-15 11:00N 27°57' W 082°27'0 0.0
2019-Apr-15 10:30N 27°57' W 082°27'1 1.4
2019-Apr-15 10:00N 27°56' W 082°27'2 4.6
2019-Apr-15 09:31N 27°54' W 082°26'5 9.4
2019-Apr-15 09:00N 27°49' W 082°27'510.6
2019-Apr-15 08:30N 27°46' W 082°31'4910.9
2019-Apr-15 04:00N 27°12' W 083°12'13915.5 260 / 251015.5 5.4 23.019.9
2019-Apr-14 19:00N 25°06' W 084°18'8714.5 170 / 131014.5 26.0 26.0
2019-Apr-14 13:00N 23°48' W 085°00'   170 / 191013.5 27.226.927.1

Dump ship's entire track history